Hlavní strana
METAR-TAF:

METAR-TAF

Letiště :

Kostanay, Kazachstán

zeměpisná šířka: 53-12-23N, zeměpisná délka: 063-33-03E, výška: 182 m

Aktuální stav počasí

Zpráva byla vytvořena před 30 minutami, v 18:00 UTC
Bezvětří
Teplota -25°C
Vlhkost vzduchu 83%
Tlak 1019 hPa
Viditelnost: 7000 m

METAR: UAUU 181800Z 00000MPS 7000 NSC M25/M27 Q1019 R15/810158 NOSIG RMK QFE748/0998

Čas: 00:30 (18:30 UTC)

Předpověď počasí

Zpráva byla vytvořena před 1 hodinou a 30 minutami, v 17:00 UTC
Předpověď platná od 18 v 18 UTC do 19 v 03 UTC
Severní vítr 6 kt
Viditelnost: 3100 m
Polojasno ve výšce 1100 ft
kouřmo
Dočasný
od 18 v 18 UTC do 19 v 03 UTC
Viditelnost: 0400 m
ve výšce 200 ft
mrznoucí mlha

TAF: UAUU 181700Z 1818/1903 36003MPS 3100 BR SCT011 TEMPO 1818/1903 0400 FZFG VV002

Stav a předpovědi počasí z více než 4 000 letišť (zprávy METAR a TAF).

Červené a žluté tečky na mapě představují dostupné meteorologické stanice.

Když kurzor umístíte na tečku, zobrazí se název stanice.

Pak kliknutím zobrazíte stav a předpověď počasí.

Chcete-li změnit mapu, kliknutím na zelené tlačítko se znaménkem +mapu přiblížíte, kliknutím na zelené tlačítko se znaménkem – mapu oddálíte a kliknutím na zelené šipky přejdete na sousední mapy.


METAR-TAF: